sensor_id;sensor_type;location;lat;lon;timestamp;temperature;humidity
15241;DHT22;7723;52.170;9.978;2023-08-07T00:01:58;14.80;99.90
15241;DHT22;7723;52.170;9.978;2023-08-07T00:04:25;14.80;99.90
15241;DHT22;7723;52.170;9.978;2023-08-07T00:06:53;14.80;99.90
15241;DHT22;7723;52.170;9.978;2023-08-07T00:09:20;14.80;99.90
15241;DHT22;7723;52.170;9.978;2023-08-07T00:11:47;14.80;99.90
15241;DHT22;7723;52.170;9.978;2023-08-07T00:14:15;14.80;99.90
15241;DHT22;7723;52.170;9.978;2023-08-07T00:16:42;14.90;99.90
15241;DHT22;7723;52.170;9.978;2023-08-07T00:19:10;14.90;99.90
15241;DHT22;7723;52.170;9.978;2023-08-07T00:21:37;14.90;99.90
15241;DHT22;7723;52.170;9.978;2023-08-07T00:24:05;14.90;99.90
15241;DHT22;7723;52.170;9.978;2023-08-07T00:26:32;15.00;99.90
15241;DHT22;7723;52.170;9.978;2023-08-07T00:28:59;15.00;99.90
15241;DHT22;7723;52.170;9.978;2023-08-07T00:31:28;15.00;99.90
15241;DHT22;7723;52.170;9.978;2023-08-07T00:33:57;15.00;99.90
15241;DHT22;7723;52.170;9.978;2023-08-07T00:36:25;15.00;99.90
15241;DHT22;7723;52.170;9.978;2023-08-07T00:38:54;15.10;99.90
15241;DHT22;7723;52.170;9.978;2023-08-07T00:41:21;15.10;99.90
15241;DHT22;7723;52.170;9.978;2023-08-07T00:43:48;15.10;99.90
15241;DHT22;7723;52.170;9.978;2023-08-07T00:46:15;15.00;99.90
15241;DHT22;7723;52.170;9.978;2023-08-07T00:48:44;15.10;99.90
15241;DHT22;7723;52.170;9.978;2023-08-07T00:51:11;15.00;99.90
15241;DHT22;7723;52.170;9.978;2023-08-07T00:53:39;14.90;99.90
15241;DHT22;7723;52.170;9.978;2023-08-07T00:56:07;14.90;99.90
15241;DHT22;7723;52.170;9.978;2023-08-07T00:58:34;14.80;99.90
15241;DHT22;7723;52.170;9.978;2023-08-07T01:01:03;14.90;99.90
15241;DHT22;7723;52.170;9.978;2023-08-07T01:03:31;14.80;99.90
15241;DHT22;7723;52.170;9.978;2023-08-07T01:06:00;14.80;99.90
15241;DHT22;7723;52.170;9.978;2023-08-07T01:08:28;14.80;99.90
15241;DHT22;7723;52.170;9.978;2023-08-07T01:11:11;14.80;99.90
15241;DHT22;7723;52.170;9.978;2023-08-07T01:13:47;14.80;99.90
15241;DHT22;7723;52.170;9.978;2023-08-07T01:16:21;14.80;99.90
15241;DHT22;7723;52.170;9.978;2023-08-07T01:18:49;14.90;99.90
15241;DHT22;7723;52.170;9.978;2023-08-07T01:21:21;14.80;99.90
15241;DHT22;7723;52.170;9.978;2023-08-07T01:23:50;14.80;99.90
15241;DHT22;7723;52.170;9.978;2023-08-07T01:26:19;14.80;99.90
15241;DHT22;7723;52.170;9.978;2023-08-07T01:28:52;14.80;99.90
15241;DHT22;7723;52.170;9.978;2023-08-07T01:31:25;14.80;99.90
15241;DHT22;7723;52.170;9.978;2023-08-07T01:33:57;14.80;99.90
15241;DHT22;7723;52.170;9.978;2023-08-07T01:36:27;14.80;99.90
15241;DHT22;7723;52.170;9.978;2023-08-07T01:38:57;14.80;99.90
15241;DHT22;7723;52.170;9.978;2023-08-07T01:41:26;14.70;99.90
15241;DHT22;7723;52.170;9.978;2023-08-07T01:43:55;14.80;99.90
15241;DHT22;7723;52.170;9.978;2023-08-07T01:46:24;14.80;99.90
15241;DHT22;7723;52.170;9.978;2023-08-07T01:48:51;14.80;99.90
15241;DHT22;7723;52.170;9.978;2023-08-07T01:51:18;14.80;99.90
15241;DHT22;7723;52.170;9.978;2023-08-07T01:53:45;14.80;99.90
15241;DHT22;7723;52.170;9.978;2023-08-07T01:56:14;14.80;99.90
15241;DHT22;7723;52.170;9.978;2023-08-07T01:58:41;14.70;99.90
15241;DHT22;7723;52.170;9.978;2023-08-07T02:01:09;14.70;99.90
15241;DHT22;7723;52.170;9.978;2023-08-07T02:03:36;14.70;99.90
15241;DHT22;7723;52.170;9.978;2023-08-07T02:06:03;14.70;99.90
15241;DHT22;7723;52.170;9.978;2023-08-07T02:08:30;14.70;99.90
15241;DHT22;7723;52.170;9.978;2023-08-07T02:10:57;14.60;99.90
15241;DHT22;7723;52.170;9.978;2023-08-07T02:13:28;14.60;99.90
15241;DHT22;7723;52.170;9.978;2023-08-07T02:15:55;14.60;99.90
15241;DHT22;7723;52.170;9.978;2023-08-07T02:18:22;14.60;99.90
15241;DHT22;7723;52.170;9.978;2023-08-07T02:20:49;14.60;99.90
15241;DHT22;7723;52.170;9.978;2023-08-07T02:23:16;14.60;99.90
15241;DHT22;7723;52.170;9.978;2023-08-07T02:25:43;14.60;99.90
15241;DHT22;7723;52.170;9.978;2023-08-07T02:28:11;14.60;99.90
15241;DHT22;7723;52.170;9.978;2023-08-07T02:30:39;14.50;99.90
15241;DHT22;7723;52.170;9.978;2023-08-07T02:33:06;14.50;99.90
15241;DHT22;7723;52.170;9.978;2023-08-07T02:35:32;14.50;99.90
15241;DHT22;7723;52.170;9.978;2023-08-07T02:38:00;14.50;99.90
15241;DHT22;7723;52.170;9.978;2023-08-07T02:40:27;14.50;99.90
15241;DHT22;7723;52.170;9.978;2023-08-07T02:42:54;14.40;99.90
15241;DHT22;7723;52.170;9.978;2023-08-07T02:45:21;14.40;99.90
15241;DHT22;7723;52.170;9.978;2023-08-07T02:47:49;14.30;99.90
15241;DHT22;7723;52.170;9.978;2023-08-07T02:50:16;14.20;99.90
15241;DHT22;7723;52.170;9.978;2023-08-07T02:52:43;14.20;99.90
15241;DHT22;7723;52.170;9.978;2023-08-07T02:55:10;14.20;99.90
15241;DHT22;7723;52.170;9.978;2023-08-07T02:57:37;14.10;99.90
15241;DHT22;7723;52.170;9.978;2023-08-07T03:00:06;14.10;99.90
15241;DHT22;7723;52.170;9.978;2023-08-07T03:02:33;14.00;99.90
15241;DHT22;7723;52.170;9.978;2023-08-07T03:05:02;14.00;99.90
15241;DHT22;7723;52.170;9.978;2023-08-07T03:07:29;14.00;99.90
15241;DHT22;7723;52.170;9.978;2023-08-07T03:09:56;14.00;99.90
15241;DHT22;7723;52.170;9.978;2023-08-07T03:12:23;14.00;99.90
15241;DHT22;7723;52.170;9.978;2023-08-07T03:14:50;14.00;99.90
15241;DHT22;7723;52.170;9.978;2023-08-07T03:17:17;13.90;99.90
15241;DHT22;7723;52.170;9.978;2023-08-07T03:19:46;13.90;99.90
15241;DHT22;7723;52.170;9.978;2023-08-07T03:22:16;13.90;99.90
15241;DHT22;7723;52.170;9.978;2023-08-07T03:24:46;13.90;99.90
15241;DHT22;7723;52.170;9.978;2023-08-07T03:27:14;13.90;99.90
15241;DHT22;7723;52.170;9.978;2023-08-07T03:29:41;13.90;99.90
15241;DHT22;7723;52.170;9.978;2023-08-07T03:32:09;13.90;99.90
15241;DHT22;7723;52.170;9.978;2023-08-07T03:34:36;13.90;99.90
15241;DHT22;7723;52.170;9.978;2023-08-07T03:37:03;13.90;99.90
15241;DHT22;7723;52.170;9.978;2023-08-07T03:39:32;13.90;99.90
15241;DHT22;7723;52.170;9.978;2023-08-07T03:41:59;14.00;99.90
15241;DHT22;7723;52.170;9.978;2023-08-07T03:44:26;14.00;99.90
15241;DHT22;7723;52.170;9.978;2023-08-07T03:46:53;14.10;99.90
15241;DHT22;7723;52.170;9.978;2023-08-07T03:49:22;14.10;99.90
15241;DHT22;7723;52.170;9.978;2023-08-07T03:51:49;14.10;99.90
15241;DHT22;7723;52.170;9.978;2023-08-07T03:54:16;14.20;99.90
15241;DHT22;7723;52.170;9.978;2023-08-07T03:56:45;14.20;99.90
15241;DHT22;7723;52.170;9.978;2023-08-07T03:59:12;14.20;99.90
15241;DHT22;7723;52.170;9.978;2023-08-07T04:01:39;14.20;99.90
15241;DHT22;7723;52.170;9.978;2023-08-07T04:04:06;14.20;99.90
15241;DHT22;7723;52.170;9.978;2023-08-07T04:06:33;14.20;99.90
15241;DHT22;7723;52.170;9.978;2023-08-07T04:09:01;14.20;99.90
15241;DHT22;7723;52.170;9.978;2023-08-07T04:11:29;14.20;99.90
15241;DHT22;7723;52.170;9.978;2023-08-07T04:13:57;14.20;99.90
15241;DHT22;7723;52.170;9.978;2023-08-07T04:16:25;14.20;99.90
15241;DHT22;7723;52.170;9.978;2023-08-07T04:18:52;14.20;99.90
15241;DHT22;7723;52.170;9.978;2023-08-07T04:21:19;14.30;99.90
15241;DHT22;7723;52.170;9.978;2023-08-07T04:23:46;14.20;99.90
15241;DHT22;7723;52.170;9.978;2023-08-07T04:26:13;14.20;99.90
15241;DHT22;7723;52.170;9.978;2023-08-07T04:28:42;14.30;99.90
15241;DHT22;7723;52.170;9.978;2023-08-07T04:31:10;14.30;99.90
15241;DHT22;7723;52.170;9.978;2023-08-07T04:33:38;14.30;99.90
15241;DHT22;7723;52.170;9.978;2023-08-07T04:36:05;14.20;99.90
15241;DHT22;7723;52.170;9.978;2023-08-07T04:38:32;14.30;99.90
15241;DHT22;7723;52.170;9.978;2023-08-07T04:40:59;14.30;99.90
15241;DHT22;7723;52.170;9.978;2023-08-07T04:43:26;14.30;99.90
15241;DHT22;7723;52.170;9.978;2023-08-07T04:45:54;14.30;99.90
15241;DHT22;7723;52.170;9.978;2023-08-07T04:48:22;14.40;99.90
15241;DHT22;7723;52.170;9.978;2023-08-07T04:50:51;14.40;99.90
15241;DHT22;7723;52.170;9.978;2023-08-07T04:53:18;14.40;99.90
15241;DHT22;7723;52.170;9.978;2023-08-07T04:55:45;14.40;99.90
15241;DHT22;7723;52.170;9.978;2023-08-07T04:58:12;14.40;99.90
15241;DHT22;7723;52.170;9.978;2023-08-07T05:00:40;14.50;99.90
15241;DHT22;7723;52.170;9.978;2023-08-07T05:03:07;14.50;99.90
15241;DHT22;7723;52.170;9.978;2023-08-07T05:05:35;14.50;99.90
15241;DHT22;7723;52.170;9.978;2023-08-07T05:08:03;14.50;99.90
15241;DHT22;7723;52.170;9.978;2023-08-07T05:10:30;14.50;99.90
15241;DHT22;7723;52.170;9.978;2023-08-07T05:12:57;14.50;99.90
15241;DHT22;7723;52.170;9.978;2023-08-07T05:15:25;14.50;99.90
15241;DHT22;7723;52.170;9.978;2023-08-07T05:17:54;14.50;99.90
15241;DHT22;7723;52.170;9.978;2023-08-07T05:20:21;14.50;99.90
15241;DHT22;7723;52.170;9.978;2023-08-07T05:22:49;14.50;99.90
15241;DHT22;7723;52.170;9.978;2023-08-07T05:25:17;14.50;99.90
15241;DHT22;7723;52.170;9.978;2023-08-07T05:27:45;14.60;99.90
15241;DHT22;7723;52.170;9.978;2023-08-07T05:30:13;14.60;99.90
15241;DHT22;7723;52.170;9.978;2023-08-07T05:32:40;14.50;99.90
15241;DHT22;7723;52.170;9.978;2023-08-07T05:35:08;14.60;99.90
15241;DHT22;7723;52.170;9.978;2023-08-07T05:37:35;14.60;99.90
15241;DHT22;7723;52.170;9.978;2023-08-07T05:40:05;14.50;99.90
15241;DHT22;7723;52.170;9.978;2023-08-07T05:42:33;14.60;99.90
15241;DHT22;7723;52.170;9.978;2023-08-07T05:45:00;14.60;99.90
15241;DHT22;7723;52.170;9.978;2023-08-07T05:47:27;14.60;99.90
15241;DHT22;7723;52.170;9.978;2023-08-07T05:49:54;14.70;99.90
15241;DHT22;7723;52.170;9.978;2023-08-07T05:52:21;14.90;99.90
15241;DHT22;7723;52.170;9.978;2023-08-07T05:54:48;15.00;99.90
15241;DHT22;7723;52.170;9.978;2023-08-07T05:57:17;15.00;99.90
15241;DHT22;7723;52.170;9.978;2023-08-07T05:59:44;15.00;99.90
15241;DHT22;7723;52.170;9.978;2023-08-07T06:02:11;15.00;99.90
15241;DHT22;7723;52.170;9.978;2023-08-07T06:04:39;14.90;99.90
15241;DHT22;7723;52.170;9.978;2023-08-07T06:07:06;14.90;99.90
15241;DHT22;7723;52.170;9.978;2023-08-07T06:09:33;15.00;99.90
15241;DHT22;7723;52.170;9.978;2023-08-07T06:12:00;15.00;99.90
15241;DHT22;7723;52.170;9.978;2023-08-07T06:14:29;15.10;99.90
15241;DHT22;7723;52.170;9.978;2023-08-07T06:16:56;15.20;99.90
15241;DHT22;7723;52.170;9.978;2023-08-07T06:19:24;15.30;99.90
15241;DHT22;7723;52.170;9.978;2023-08-07T06:21:52;15.40;99.90
15241;DHT22;7723;52.170;9.978;2023-08-07T06:24:20;15.40;99.90
15241;DHT22;7723;52.170;9.978;2023-08-07T06:26:47;15.50;99.90
15241;DHT22;7723;52.170;9.978;2023-08-07T06:29:14;15.60;99.90
15241;DHT22;7723;52.170;9.978;2023-08-07T06:31:42;15.60;99.90
15241;DHT22;7723;52.170;9.978;2023-08-07T06:34:10;15.70;99.90
15241;DHT22;7723;52.170;9.978;2023-08-07T06:36:37;15.60;99.90
15241;DHT22;7723;52.170;9.978;2023-08-07T06:39:04;15.50;99.90
15241;DHT22;7723;52.170;9.978;2023-08-07T06:41:31;15.50;99.90
15241;DHT22;7723;52.170;9.978;2023-08-07T06:43:58;15.40;99.90
15241;DHT22;7723;52.170;9.978;2023-08-07T06:46:25;15.30;99.90
15241;DHT22;7723;52.170;9.978;2023-08-07T06:48:54;15.40;99.90
15241;DHT22;7723;52.170;9.978;2023-08-07T06:51:22;15.50;99.90
15241;DHT22;7723;52.170;9.978;2023-08-07T06:53:49;15.60;99.90
15241;DHT22;7723;52.170;9.978;2023-08-07T06:56:16;15.60;99.90
15241;DHT22;7723;52.170;9.978;2023-08-07T06:58:43;15.60;99.90
15241;DHT22;7723;52.170;9.978;2023-08-07T07:01:10;15.60;99.90
15241;DHT22;7723;52.170;9.978;2023-08-07T07:03:37;15.60;99.90
15241;DHT22;7723;52.170;9.978;2023-08-07T07:06:06;15.60;99.90
15241;DHT22;7723;52.170;9.978;2023-08-07T07:08:34;15.70;99.90
15241;DHT22;7723;52.170;9.978;2023-08-07T07:11:01;15.80;99.90
15241;DHT22;7723;52.170;9.978;2023-08-07T07:13:29;15.90;99.90
15241;DHT22;7723;52.170;9.978;2023-08-07T07:15:57;16.10;99.90
15241;DHT22;7723;52.170;9.978;2023-08-07T07:18:24;16.20;99.90
15241;DHT22;7723;52.170;9.978;2023-08-07T07:20:56;16.40;99.90
15241;DHT22;7723;52.170;9.978;2023-08-07T07:23:26;16.50;99.90
15241;DHT22;7723;52.170;9.978;2023-08-07T07:25:53;16.60;99.90
15241;DHT22;7723;52.170;9.978;2023-08-07T07:28:20;16.40;99.90
15241;DHT22;7723;52.170;9.978;2023-08-07T07:30:49;16.30;99.90
15241;DHT22;7723;52.170;9.978;2023-08-07T07:33:16;16.20;99.90
15241;DHT22;7723;52.170;9.978;2023-08-07T07:35:43;16.10;99.90
15241;DHT22;7723;52.170;9.978;2023-08-07T07:38:10;16.10;99.90
15241;DHT22;7723;52.170;9.978;2023-08-07T07:40:39;16.10;99.90
15241;DHT22;7723;52.170;9.978;2023-08-07T07:43:06;16.00;99.90
15241;DHT22;7723;52.170;9.978;2023-08-07T07:45:33;16.00;99.90
15241;DHT22;7723;52.170;9.978;2023-08-07T07:48:01;16.00;99.90
15241;DHT22;7723;52.170;9.978;2023-08-07T07:50:28;15.90;99.90
15241;DHT22;7723;52.170;9.978;2023-08-07T07:52:55;15.80;99.90
15241;DHT22;7723;52.170;9.978;2023-08-07T07:55:24;15.70;99.90
15241;DHT22;7723;52.170;9.978;2023-08-07T07:57:53;15.60;99.90
15241;DHT22;7723;52.170;9.978;2023-08-07T08:00:21;15.70;99.90
15241;DHT22;7723;52.170;9.978;2023-08-07T08:02:51;15.70;99.90
15241;DHT22;7723;52.170;9.978;2023-08-07T08:05:18;15.70;99.90
15241;DHT22;7723;52.170;9.978;2023-08-07T08:07:46;15.60;99.90
15241;DHT22;7723;52.170;9.978;2023-08-07T08:10:13;15.40;99.90
15241;DHT22;7723;52.170;9.978;2023-08-07T08:12:40;15.40;99.90
15241;DHT22;7723;52.170;9.978;2023-08-07T08:15:09;15.40;99.90
15241;DHT22;7723;52.170;9.978;2023-08-07T08:17:36;15.60;99.90
15241;DHT22;7723;52.170;9.978;2023-08-07T08:20:05;15.90;99.90
15241;DHT22;7723;52.170;9.978;2023-08-07T08:22:32;16.20;99.90
15241;DHT22;7723;52.170;9.978;2023-08-07T08:25:00;16.40;99.90
15241;DHT22;7723;52.170;9.978;2023-08-07T08:27:27;16.60;99.90
15241;DHT22;7723;52.170;9.978;2023-08-07T08:29:54;17.20;99.90
15241;DHT22;7723;52.170;9.978;2023-08-07T08:32:22;17.40;99.90
15241;DHT22;7723;52.170;9.978;2023-08-07T08:34:49;17.50;99.90
15241;DHT22;7723;52.170;9.978;2023-08-07T08:37:17;17.40;99.90
15241;DHT22;7723;52.170;9.978;2023-08-07T08:39:44;17.10;99.90
15241;DHT22;7723;52.170;9.978;2023-08-07T08:42:11;16.80;99.90
15241;DHT22;7723;52.170;9.978;2023-08-07T08:44:40;16.60;99.90
15241;DHT22;7723;52.170;9.978;2023-08-07T08:47:09;16.60;99.90
15241;DHT22;7723;52.170;9.978;2023-08-07T08:49:43;16.50;99.90
15241;DHT22;7723;52.170;9.978;2023-08-07T08:52:12;16.30;99.90
15241;DHT22;7723;52.170;9.978;2023-08-07T08:54:40;16.10;99.90
15241;DHT22;7723;52.170;9.978;2023-08-07T08:57:08;16.00;99.90
15241;DHT22;7723;52.170;9.978;2023-08-07T08:59:36;15.90;99.90
15241;DHT22;7723;52.170;9.978;2023-08-07T09:02:04;15.90;99.90
15241;DHT22;7723;52.170;9.978;2023-08-07T09:04:31;16.10;99.90
15241;DHT22;7723;52.170;9.978;2023-08-07T09:07:00;16.00;99.90
15241;DHT22;7723;52.170;9.978;2023-08-07T09:09:28;16.00;99.90
15241;DHT22;7723;52.170;9.978;2023-08-07T09:11:57;16.00;99.90
15241;DHT22;7723;52.170;9.978;2023-08-07T09:14:27;16.00;99.90
15241;DHT22;7723;52.170;9.978;2023-08-07T09:16:59;16.20;99.90
15241;DHT22;7723;52.170;9.978;2023-08-07T09:19:27;16.70;99.90
15241;DHT22;7723;52.170;9.978;2023-08-07T09:21:55;17.40;99.90
15241;DHT22;7723;52.170;9.978;2023-08-07T09:24:23;17.80;99.90
15241;DHT22;7723;52.170;9.978;2023-08-07T09:26:51;18.00;99.90
15241;DHT22;7723;52.170;9.978;2023-08-07T09:29:20;18.20;99.90
15241;DHT22;7723;52.170;9.978;2023-08-07T09:31:47;18.30;99.90
15241;DHT22;7723;52.170;9.978;2023-08-07T09:34:14;18.40;99.90
15241;DHT22;7723;52.170;9.978;2023-08-07T09:36:44;18.40;99.90
15241;DHT22;7723;52.170;9.978;2023-08-07T09:39:12;18.30;99.90
15241;DHT22;7723;52.170;9.978;2023-08-07T09:41:41;18.10;99.90
15241;DHT22;7723;52.170;9.978;2023-08-07T09:44:10;17.50;99.90
15241;DHT22;7723;52.170;9.978;2023-08-07T09:46:44;17.00;99.90
15241;DHT22;7723;52.170;9.978;2023-08-07T09:49:11;16.50;99.90
15241;DHT22;7723;52.170;9.978;2023-08-07T09:51:42;16.30;99.90
15241;DHT22;7723;52.170;9.978;2023-08-07T09:54:10;16.30;99.90
15241;DHT22;7723;52.170;9.978;2023-08-07T09:56:37;16.60;99.90
15241;DHT22;7723;52.170;9.978;2023-08-07T09:59:07;17.40;99.90
15241;DHT22;7723;52.170;9.978;2023-08-07T10:01:36;18.10;99.90
15241;DHT22;7723;52.170;9.978;2023-08-07T10:04:05;19.00;99.90
15241;DHT22;7723;52.170;9.978;2023-08-07T10:06:33;19.20;99.90
15241;DHT22;7723;52.170;9.978;2023-08-07T10:09:01;19.60;99.90
15241;DHT22;7723;52.170;9.978;2023-08-07T10:11:29;19.70;99.90
15241;DHT22;7723;52.170;9.978;2023-08-07T10:13:58;19.70;99.90
15241;DHT22;7723;52.170;9.978;2023-08-07T10:16:27;18.90;99.90
15241;DHT22;7723;52.170;9.978;2023-08-07T10:18:55;18.60;99.90
15241;DHT22;7723;52.170;9.978;2023-08-07T10:21:23;18.20;99.90
15241;DHT22;7723;52.170;9.978;2023-08-07T10:23:53;17.90;99.90
15241;DHT22;7723;52.170;9.978;2023-08-07T10:26:22;17.70;99.90
15241;DHT22;7723;52.170;9.978;2023-08-07T10:28:51;17.40;99.90
15241;DHT22;7723;52.170;9.978;2023-08-07T10:31:20;16.30;99.90
15241;DHT22;7723;52.170;9.978;2023-08-07T10:33:51;15.90;99.90
15241;DHT22;7723;52.170;9.978;2023-08-07T10:36:19;15.20;99.90
15241;DHT22;7723;52.170;9.978;2023-08-07T10:38:49;15.20;99.90
15241;DHT22;7723;52.170;9.978;2023-08-07T10:41:18;15.40;99.90
15241;DHT22;7723;52.170;9.978;2023-08-07T10:43:46;15.90;99.90
15241;DHT22;7723;52.170;9.978;2023-08-07T10:46:15;16.10;99.90
15241;DHT22;7723;52.170;9.978;2023-08-07T10:48:43;16.30;99.90
15241;DHT22;7723;52.170;9.978;2023-08-07T10:51:14;16.60;99.90
15241;DHT22;7723;52.170;9.978;2023-08-07T10:53:43;16.90;99.90
15241;DHT22;7723;52.170;9.978;2023-08-07T10:56:15;17.20;99.90
15241;DHT22;7723;52.170;9.978;2023-08-07T10:58:42;17.20;99.90
15241;DHT22;7723;52.170;9.978;2023-08-07T11:01:17;17.20;99.90
15241;DHT22;7723;52.170;9.978;2023-08-07T11:03:45;17.20;99.90
15241;DHT22;7723;52.170;9.978;2023-08-07T11:06:13;17.10;99.90
15241;DHT22;7723;52.170;9.978;2023-08-07T11:08:41;16.70;99.90
15241;DHT22;7723;52.170;9.978;2023-08-07T11:11:08;16.60;99.90
15241;DHT22;7723;52.170;9.978;2023-08-07T11:13:35;16.80;99.90
15241;DHT22;7723;52.170;9.978;2023-08-07T11:16:02;17.00;99.90
15241;DHT22;7723;52.170;9.978;2023-08-07T11:18:31;17.10;99.90
15241;DHT22;7723;52.170;9.978;2023-08-07T11:20:58;17.20;99.90
15241;DHT22;7723;52.170;9.978;2023-08-07T11:23:28;17.20;99.90
15241;DHT22;7723;52.170;9.978;2023-08-07T11:25:55;17.40;99.90
15241;DHT22;7723;52.170;9.978;2023-08-07T11:28:23;17.80;99.90
15241;DHT22;7723;52.170;9.978;2023-08-07T11:30:52;17.80;99.90
15241;DHT22;7723;52.170;9.978;2023-08-07T11:33:21;17.80;99.90
15241;DHT22;7723;52.170;9.978;2023-08-07T11:35:49;18.00;99.90
15241;DHT22;7723;52.170;9.978;2023-08-07T11:38:30;18.00;99.90
15241;DHT22;7723;52.170;9.978;2023-08-07T11:43:27;18.20;99.90
15241;DHT22;7723;52.170;9.978;2023-08-07T11:45:56;18.10;99.90
15241;DHT22;7723;52.170;9.978;2023-08-07T11:48:24;18.20;99.90
15241;DHT22;7723;52.170;9.978;2023-08-07T11:50:52;18.30;99.90
15241;DHT22;7723;52.170;9.978;2023-08-07T11:53:19;18.70;99.90
15241;DHT22;7723;52.170;9.978;2023-08-07T11:55:51;18.90;99.90
15241;DHT22;7723;52.170;9.978;2023-08-07T11:58:19;19.00;99.90
15241;DHT22;7723;52.170;9.978;2023-08-07T12:00:46;18.70;99.90
15241;DHT22;7723;52.170;9.978;2023-08-07T12:03:28;18.60;1.00
15241;DHT22;7723;52.170;9.978;2023-08-07T12:05:56;18.70;1.00
15241;DHT22;7723;52.170;9.978;2023-08-07T12:08:23;18.90;1.00
15241;DHT22;7723;52.170;9.978;2023-08-07T12:10:54;18.30;1.00
15241;DHT22;7723;52.170;9.978;2023-08-07T12:13:24;17.10;99.90
15241;DHT22;7723;52.170;9.978;2023-08-07T12:15:54;16.50;99.90
15241;DHT22;7723;52.170;9.978;2023-08-07T12:18:21;16.00;99.90
15241;DHT22;7723;52.170;9.978;2023-08-07T12:20:49;15.70;99.90
15241;DHT22;7723;52.170;9.978;2023-08-07T12:23:18;15.50;99.90
15241;DHT22;7723;52.170;9.978;2023-08-07T12:25:47;15.70;99.90
15241;DHT22;7723;52.170;9.978;2023-08-07T12:28:16;15.80;99.90
15241;DHT22;7723;52.170;9.978;2023-08-07T12:30:46;16.00;99.90
15241;DHT22;7723;52.170;9.978;2023-08-07T12:33:14;16.30;99.90
15241;DHT22;7723;52.170;9.978;2023-08-07T12:35:41;16.60;99.90
15241;DHT22;7723;52.170;9.978;2023-08-07T12:38:09;16.80;99.90
15241;DHT22;7723;52.170;9.978;2023-08-07T12:40:36;16.70;99.90
15241;DHT22;7723;52.170;9.978;2023-08-07T12:43:04;16.60;99.90
15241;DHT22;7723;52.170;9.978;2023-08-07T12:45:33;16.50;99.90
15241;DHT22;7723;52.170;9.978;2023-08-07T12:48:00;16.50;99.90
15241;DHT22;7723;52.170;9.978;2023-08-07T12:50:28;16.40;99.90
15241;DHT22;7723;52.170;9.978;2023-08-07T12:52:55;16.20;99.90
15241;DHT22;7723;52.170;9.978;2023-08-07T12:55:22;15.70;99.90
15241;DHT22;7723;52.170;9.978;2023-08-07T12:57:50;15.10;99.90
15241;DHT22;7723;52.170;9.978;2023-08-07T13:00:17;14.90;99.90
15241;DHT22;7723;52.170;9.978;2023-08-07T13:02:47;14.90;99.90
15241;DHT22;7723;52.170;9.978;2023-08-07T13:05:15;14.90;99.90
15241;DHT22;7723;52.170;9.978;2023-08-07T13:07:43;15.00;99.90
15241;DHT22;7723;52.170;9.978;2023-08-07T13:10:12;15.20;99.90
15241;DHT22;7723;52.170;9.978;2023-08-07T13:12:42;15.60;99.90
15241;DHT22;7723;52.170;9.978;2023-08-07T13:15:11;15.90;99.90
15241;DHT22;7723;52.170;9.978;2023-08-07T13:17:39;16.00;99.90
15241;DHT22;7723;52.170;9.978;2023-08-07T13:20:09;16.20;99.90
15241;DHT22;7723;52.170;9.978;2023-08-07T13:22:38;16.50;99.90
15241;DHT22;7723;52.170;9.978;2023-08-07T13:25:06;16.60;99.90
15241;DHT22;7723;52.170;9.978;2023-08-07T13:27:34;16.60;99.90
15241;DHT22;7723;52.170;9.978;2023-08-07T13:30:03;16.70;99.90
15241;DHT22;7723;52.170;9.978;2023-08-07T13:32:30;16.80;99.90
15241;DHT22;7723;52.170;9.978;2023-08-07T13:34:57;16.90;99.90
15241;DHT22;7723;52.170;9.978;2023-08-07T13:37:26;17.20;99.90
15241;DHT22;7723;52.170;9.978;2023-08-07T13:39:53;17.10;81.70
15241;DHT22;7723;52.170;9.978;2023-08-07T13:42:24;17.00;1.00
15241;DHT22;7723;52.170;9.978;2023-08-07T13:44:53;17.10;1.00
15241;DHT22;7723;52.170;9.978;2023-08-07T13:47:20;17.10;99.90
15241;DHT22;7723;52.170;9.978;2023-08-07T13:49:47;17.30;1.00
15241;DHT22;7723;52.170;9.978;2023-08-07T13:52:15;17.30;1.00
15241;DHT22;7723;52.170;9.978;2023-08-07T13:54:44;17.30;99.90
15241;DHT22;7723;52.170;9.978;2023-08-07T13:57:11;17.40;1.00
15241;DHT22;7723;52.170;9.978;2023-08-07T13:59:39;17.50;99.90
15241;DHT22;7723;52.170;9.978;2023-08-07T14:02:08;17.60;99.90
15241;DHT22;7723;52.170;9.978;2023-08-07T14:04:36;17.70;99.90
15241;DHT22;7723;52.170;9.978;2023-08-07T14:07:03;17.70;99.90
15241;DHT22;7723;52.170;9.978;2023-08-07T14:09:30;17.60;9.70
15241;DHT22;7723;52.170;9.978;2023-08-07T14:11:59;17.40;99.90
15241;DHT22;7723;52.170;9.978;2023-08-07T14:14:26;17.20;1.00
15241;DHT22;7723;52.170;9.978;2023-08-07T14:16:53;16.90;99.90
15241;DHT22;7723;52.170;9.978;2023-08-07T14:19:23;16.70;1.00
15241;DHT22;7723;52.170;9.978;2023-08-07T14:21:51;16.70;99.90
15241;DHT22;7723;52.170;9.978;2023-08-07T14:24:18;16.80;1.00
15241;DHT22;7723;52.170;9.978;2023-08-07T14:26:45;17.00;1.00
15241;DHT22;7723;52.170;9.978;2023-08-07T14:29:14;17.00;24.60
15241;DHT22;7723;52.170;9.978;2023-08-07T14:31:41;17.10;99.90
15241;DHT22;7723;52.170;9.978;2023-08-07T14:34:08;17.20;99.90
15241;DHT22;7723;52.170;9.978;2023-08-07T14:36:35;17.30;99.90
15241;DHT22;7723;52.170;9.978;2023-08-07T14:39:03;17.50;30.00
15241;DHT22;7723;52.170;9.978;2023-08-07T14:41:30;17.60;1.00
15241;DHT22;7723;52.170;9.978;2023-08-07T14:43:57;17.50;99.90
15241;DHT22;7723;52.170;9.978;2023-08-07T14:46:26;17.40;1.00
15241;DHT22;7723;52.170;9.978;2023-08-07T14:48:53;17.40;1.00
15241;DHT22;7723;52.170;9.978;2023-08-07T14:51:21;17.20;99.90
15241;DHT22;7723;52.170;9.978;2023-08-07T14:53:48;17.10;99.90
15241;DHT22;7723;52.170;9.978;2023-08-07T14:56:15;17.20;1.00
15241;DHT22;7723;52.170;9.978;2023-08-07T14:58:42;17.20;1.00
15241;DHT22;7723;52.170;9.978;2023-08-07T15:01:09;17.30;1.00
15241;DHT22;7723;52.170;9.978;2023-08-07T15:03:38;17.20;99.90
15241;DHT22;7723;52.170;9.978;2023-08-07T15:06:05;17.30;66.00
15241;DHT22;7723;52.170;9.978;2023-08-07T15:08:32;17.20;99.90
15241;DHT22;7723;52.170;9.978;2023-08-07T15:10:59;17.20;99.90
15241;DHT22;7723;52.170;9.978;2023-08-07T15:13:26;17.40;99.90
15241;DHT22;7723;52.170;9.978;2023-08-07T15:15:54;17.60;99.90
15241;DHT22;7723;52.170;9.978;2023-08-07T15:18:21;17.70;99.90
15241;DHT22;7723;52.170;9.978;2023-08-07T15:20:51;17.70;1.00
15241;DHT22;7723;52.170;9.978;2023-08-07T15:23:18;17.60;1.00
15241;DHT22;7723;52.170;9.978;2023-08-07T15:25:45;17.50;1.00
15241;DHT22;7723;52.170;9.978;2023-08-07T15:28:12;17.50;1.00
15241;DHT22;7723;52.170;9.978;2023-08-07T15:30:39;17.40;1.00
15241;DHT22;7723;52.170;9.978;2023-08-07T15:33:06;17.30;1.00
15241;DHT22;7723;52.170;9.978;2023-08-07T15:35:33;17.30;1.00
15241;DHT22;7723;52.170;9.978;2023-08-07T15:38:01;17.20;1.00
15241;DHT22;7723;52.170;9.978;2023-08-07T15:40:29;17.20;1.00
15241;DHT22;7723;52.170;9.978;2023-08-07T15:42:56;17.20;1.00
15241;DHT22;7723;52.170;9.978;2023-08-07T15:45:23;17.30;1.00
15241;DHT22;7723;52.170;9.978;2023-08-07T15:47:50;17.30;1.00
15241;DHT22;7723;52.170;9.978;2023-08-07T15:50:18;17.30;1.00
15241;DHT22;7723;52.170;9.978;2023-08-07T15:52:45;16.70;99.90
15241;DHT22;7723;52.170;9.978;2023-08-07T15:55:14;17.30;1.00